sensor_id;sensor_type;location;lat;lon;timestamp;pressure;altitude;pressure_sealevel;temperature;humidity
76853;BME280;65825;52.232;10.566;2022-12-29T00:01:23;99542.97;;;9.09;72.44
76853;BME280;65825;52.232;10.566;2022-12-29T00:03:49;99542.31;;;9.04;73.22
76853;BME280;65825;52.232;10.566;2022-12-29T00:06:14;99548.78;;;9.17;72.55
76853;BME280;65825;52.232;10.566;2022-12-29T00:08:39;99535.22;;;9.06;72.96
76853;BME280;65825;52.232;10.566;2022-12-29T00:11:09;99532.38;;;9.10;72.80
76853;BME280;65825;52.232;10.566;2022-12-29T00:13:35;99538.41;;;9.12;72.81
76853;BME280;65825;52.232;10.566;2022-12-29T00:16:19;99530.34;;;9.17;72.33
76853;BME280;65825;52.232;10.566;2022-12-29T00:18:45;99526.50;;;9.24;72.32
76853;BME280;65825;52.232;10.566;2022-12-29T00:21:17;99521.06;;;9.28;72.09
76853;BME280;65825;52.232;10.566;2022-12-29T00:24:01;99515.84;;;9.27;72.04
76853;BME280;65825;52.232;10.566;2022-12-29T00:26:47;99526.69;;;9.39;72.05
76853;BME280;65825;52.232;10.566;2022-12-29T00:29:31;99517.56;;;9.46;71.50
76853;BME280;65825;52.232;10.566;2022-12-29T00:32:15;99522.84;;;9.46;71.47
76853;BME280;65825;52.232;10.566;2022-12-29T00:34:59;99521.31;;;9.41;71.64
76853;BME280;65825;52.232;10.566;2022-12-29T00:37:43;99513.28;;;9.44;71.76
76853;BME280;65825;52.232;10.566;2022-12-29T00:40:29;99517.34;;;9.51;71.59
76853;BME280;65825;52.232;10.566;2022-12-29T00:43:13;99515.66;;;9.50;71.27
76853;BME280;65825;52.232;10.566;2022-12-29T00:45:57;99519.84;;;9.54;71.09
76853;BME280;65825;52.232;10.566;2022-12-29T00:48:22;99511.03;;;9.55;71.55
76853;BME280;65825;52.232;10.566;2022-12-29T00:51:07;99508.25;;;9.58;71.64
76853;BME280;65825;52.232;10.566;2022-12-29T00:53:33;99515.28;;;9.57;71.33
76853;BME280;65825;52.232;10.566;2022-12-29T00:55:59;99509.03;;;9.60;71.47
76853;BME280;65825;52.232;10.566;2022-12-29T00:58:27;99514.88;;;9.66;71.75
76853;BME280;65825;52.232;10.566;2022-12-29T01:01:00;99514.94;;;9.65;71.38
76853;BME280;65825;52.232;10.566;2022-12-29T01:03:26;99513.88;;;9.69;71.40
76853;BME280;65825;52.232;10.566;2022-12-29T01:05:51;99518.00;;;9.74;71.22
76853;BME280;65825;52.232;10.566;2022-12-29T01:08:16;99517.00;;;9.77;71.32
76853;BME280;65825;52.232;10.566;2022-12-29T01:10:42;99517.22;;;9.72;71.09
76853;BME280;65825;52.232;10.566;2022-12-29T01:13:07;99517.56;;;9.65;71.47
76853;BME280;65825;52.232;10.566;2022-12-29T01:15:32;99519.00;;;9.72;71.98
76853;BME280;65825;52.232;10.566;2022-12-29T01:17:57;99512.81;;;9.73;71.41
76853;BME280;65825;52.232;10.566;2022-12-29T01:20:23;99508.25;;;9.76;71.83
76853;BME280;65825;52.232;10.566;2022-12-29T01:22:48;99507.09;;;9.63;71.93
76853;BME280;65825;52.232;10.566;2022-12-29T01:25:13;99504.41;;;9.65;71.95
76853;BME280;65825;52.232;10.566;2022-12-29T01:27:38;99501.72;;;9.66;72.43
76853;BME280;65825;52.232;10.566;2022-12-29T01:30:04;99511.44;;;9.64;72.32
76853;BME280;65825;52.232;10.566;2022-12-29T01:32:30;99497.06;;;9.71;72.14
76853;BME280;65825;52.232;10.566;2022-12-29T01:34:55;99499.06;;;9.66;72.56
76853;BME280;65825;52.232;10.566;2022-12-29T01:37:20;99500.66;;;9.70;72.46
76853;BME280;65825;52.232;10.566;2022-12-29T01:39:45;99507.81;;;9.67;72.53
76853;BME280;65825;52.232;10.566;2022-12-29T01:42:19;99493.50;;;9.72;72.36
76853;BME280;65825;52.232;10.566;2022-12-29T01:44:50;99487.25;;;9.75;72.53
76853;BME280;65825;52.232;10.566;2022-12-29T01:47:41;99481.91;;;9.76;72.61
76853;BME280;65825;52.232;10.566;2022-12-29T01:52:49;99467.66;;;9.80;72.78
76853;BME280;65825;52.232;10.566;2022-12-29T01:55:16;99477.28;;;9.81;72.35
76853;BME280;65825;52.232;10.566;2022-12-29T01:57:47;99468.72;;;9.76;72.20
76853;BME280;65825;52.232;10.566;2022-12-29T02:00:14;99464.25;;;9.60;73.20
76853;BME280;65825;52.232;10.566;2022-12-29T02:02:43;99468.75;;;9.58;73.65
76853;BME280;65825;52.232;10.566;2022-12-29T02:05:16;99463.88;;;9.67;73.05
76853;BME280;65825;52.232;10.566;2022-12-29T02:07:43;99459.69;;;9.63;73.35
76853;BME280;65825;52.232;10.566;2022-12-29T02:10:09;99446.38;;;9.66;73.48
76853;BME280;65825;52.232;10.566;2022-12-29T02:12:35;99442.94;;;9.64;73.66
76853;BME280;65825;52.232;10.566;2022-12-29T02:15:02;99449.38;;;9.59;73.69
76853;BME280;65825;52.232;10.566;2022-12-29T02:23:52;99419.41;;;9.43;74.64
76853;BME280;65825;52.232;10.566;2022-12-29T02:29:57;99404.38;;;9.26;75.18
76853;BME280;65825;52.232;10.566;2022-12-29T02:31:59;99410.88;;;9.19;76.28
76853;BME280;65825;52.232;10.566;2022-12-29T02:37:24;99405.38;;;9.42;75.05
76853;BME280;65825;52.232;10.566;2022-12-29T02:40:17;99395.81;;;9.40;75.45
76853;BME280;65825;52.232;10.566;2022-12-29T02:42:53;99408.59;;;9.30;75.76
76853;BME280;65825;52.232;10.566;2022-12-29T02:48:18;99409.00;;;9.21;76.13
76853;BME280;65825;52.232;10.566;2022-12-29T02:51:08;99390.50;;;9.23;75.94
76853;BME280;65825;52.232;10.566;2022-12-29T02:53:35;99410.50;;;9.27;76.39
76853;BME280;65825;52.232;10.566;2022-12-29T02:56:21;99400.31;;;9.38;75.37
76853;BME280;65825;52.232;10.566;2022-12-29T02:58:46;99402.25;;;9.53;75.21
76853;BME280;65825;52.232;10.566;2022-12-29T03:09:30;99405.25;;;9.81;74.46
76853;BME280;65825;52.232;10.566;2022-12-29T03:12:24;99395.19;;;9.89;74.31
76853;BME280;65825;52.232;10.566;2022-12-29T03:15:02;99399.84;;;10.01;73.56
76853;BME280;65825;52.232;10.566;2022-12-29T03:17:57;99397.22;;;10.01;74.21
76853;BME280;65825;52.232;10.566;2022-12-29T03:20:31;99395.16;;;10.07;73.77
76853;BME280;65825;52.232;10.566;2022-12-29T03:23:02;99400.06;;;10.15;73.37
76853;BME280;65825;52.232;10.566;2022-12-29T03:25:34;99392.38;;;10.27;73.08
76853;BME280;65825;52.232;10.566;2022-12-29T03:28:06;99395.91;;;10.26;73.37
76853;BME280;65825;52.232;10.566;2022-12-29T03:30:33;99383.53;;;10.28;73.54
76853;BME280;65825;52.232;10.566;2022-12-29T03:33:02;99385.16;;;10.31;73.49
76853;BME280;65825;52.232;10.566;2022-12-29T03:35:30;99380.91;;;10.28;73.52
76853;BME280;65825;52.232;10.566;2022-12-29T03:38:07;99367.00;;;10.25;74.37
76853;BME280;65825;52.232;10.566;2022-12-29T03:40:37;99370.81;;;10.19;73.78
76853;BME280;65825;52.232;10.566;2022-12-29T03:43:04;99365.16;;;10.10;74.72
76853;BME280;65825;52.232;10.566;2022-12-29T03:45:29;99365.91;;;10.12;74.08
76853;BME280;65825;52.232;10.566;2022-12-29T03:47:55;99350.88;;;10.14;74.77
76853;BME280;65825;52.232;10.566;2022-12-29T03:50:20;99352.59;;;10.15;74.45
76853;BME280;65825;52.232;10.566;2022-12-29T03:52:45;99346.94;;;10.22;74.33
76853;BME280;65825;52.232;10.566;2022-12-29T03:55:11;99341.16;;;10.31;74.48
76853;BME280;65825;52.232;10.566;2022-12-29T03:57:36;99350.63;;;10.35;73.85
76853;BME280;65825;52.232;10.566;2022-12-29T04:00:04;99350.63;;;10.35;74.28
76853;BME280;65825;52.232;10.566;2022-12-29T04:02:30;99344.81;;;10.29;74.21
76853;BME280;65825;52.232;10.566;2022-12-29T04:04:55;99339.09;;;10.21;74.73
76853;BME280;65825;52.232;10.566;2022-12-29T04:07:20;99349.09;;;10.14;75.46
76853;BME280;65825;52.232;10.566;2022-12-29T04:09:46;99340.16;;;10.17;74.85
76853;BME280;65825;52.232;10.566;2022-12-29T04:12:11;99335.28;;;10.09;75.72
76853;BME280;65825;52.232;10.566;2022-12-29T04:14:36;99343.38;;;10.06;75.89
76853;BME280;65825;52.232;10.566;2022-12-29T04:17:02;99349.34;;;10.10;75.05
76853;BME280;65825;52.232;10.566;2022-12-29T04:19:27;99359.94;;;10.08;75.55
76853;BME280;65825;52.232;10.566;2022-12-29T04:21:52;99350.63;;;10.01;75.08
76853;BME280;65825;52.232;10.566;2022-12-29T04:24:18;99345.41;;;10.00;75.20
76853;BME280;65825;52.232;10.566;2022-12-29T04:26:43;99350.13;;;9.93;75.39
76853;BME280;65825;52.232;10.566;2022-12-29T04:29:08;99331.63;;;9.95;75.67
76853;BME280;65825;52.232;10.566;2022-12-29T04:31:33;99331.38;;;9.99;75.15
76853;BME280;65825;52.232;10.566;2022-12-29T04:33:59;99326.34;;;9.95;75.40
76853;BME280;65825;52.232;10.566;2022-12-29T04:36:25;99322.38;;;10.03;75.22
76853;BME280;65825;52.232;10.566;2022-12-29T04:38:50;99319.63;;;10.06;75.13
76853;BME280;65825;52.232;10.566;2022-12-29T04:41:15;99316.00;;;10.09;74.79
76853;BME280;65825;52.232;10.566;2022-12-29T04:43:41;99333.81;;;10.21;74.29
76853;BME280;65825;52.232;10.566;2022-12-29T04:46:06;99322.69;;;10.31;73.54
76853;BME280;65825;52.232;10.566;2022-12-29T04:48:31;99325.31;;;10.31;73.75
76853;BME280;65825;52.232;10.566;2022-12-29T04:50:56;99331.00;;;10.41;72.66
76853;BME280;65825;52.232;10.566;2022-12-29T04:53:22;99336.97;;;10.44;73.09
76853;BME280;65825;52.232;10.566;2022-12-29T04:55:51;99343.00;;;10.46;72.69
76853;BME280;65825;52.232;10.566;2022-12-29T04:58:18;99327.78;;;10.51;72.93
76853;BME280;65825;52.232;10.566;2022-12-29T05:00:43;99333.66;;;10.56;72.23
76853;BME280;65825;52.232;10.566;2022-12-29T05:03:08;99327.22;;;10.62;71.48
76853;BME280;65825;52.232;10.566;2022-12-29T05:05:33;99332.72;;;10.57;71.82
76853;BME280;65825;52.232;10.566;2022-12-29T05:07:59;99336.47;;;10.53;72.25
76853;BME280;65825;52.232;10.566;2022-12-29T05:10:24;99331.53;;;10.47;71.97
76853;BME280;65825;52.232;10.566;2022-12-29T05:12:49;99329.97;;;10.43;72.47
76853;BME280;65825;52.232;10.566;2022-12-29T05:15:15;99337.44;;;10.35;72.41
76853;BME280;65825;52.232;10.566;2022-12-29T05:17:40;99328.22;;;10.27;72.98
76853;BME280;65825;52.232;10.566;2022-12-29T05:20:06;99316.28;;;10.20;73.09
76853;BME280;65825;52.232;10.566;2022-12-29T05:22:32;99325.97;;;10.19;73.54
76853;BME280;65825;52.232;10.566;2022-12-29T05:24:57;99338.84;;;10.25;72.62
76853;BME280;65825;52.232;10.566;2022-12-29T05:27:22;99335.38;;;10.25;72.96
76853;BME280;65825;52.232;10.566;2022-12-29T05:29:47;99323.81;;;10.27;72.52
76853;BME280;65825;52.232;10.566;2022-12-29T05:32:13;99330.09;;;10.25;73.04
76853;BME280;65825;52.232;10.566;2022-12-29T05:34:38;99333.09;;;10.34;73.03
76853;BME280;65825;52.232;10.566;2022-12-29T05:37:03;99322.53;;;10.34;72.22
76853;BME280;65825;52.232;10.566;2022-12-29T05:39:29;99321.53;;;10.37;72.61
76853;BME280;65825;52.232;10.566;2022-12-29T05:41:54;99319.38;;;10.28;72.49
76853;BME280;65825;52.232;10.566;2022-12-29T05:44:19;99322.22;;;10.40;72.62
76853;BME280;65825;52.232;10.566;2022-12-29T05:46:45;99323.78;;;10.44;71.84
76853;BME280;65825;52.232;10.566;2022-12-29T05:49:10;99323.19;;;10.55;71.92
76853;BME280;65825;52.232;10.566;2022-12-29T05:51:35;99316.13;;;10.55;71.26
76853;BME280;65825;52.232;10.566;2022-12-29T05:54:00;99326.69;;;10.55;71.58
76853;BME280;65825;52.232;10.566;2022-12-29T05:56:26;99322.28;;;10.56;71.71
76853;BME280;65825;52.232;10.566;2022-12-29T05:58:51;99318.41;;;10.46;71.82
76853;BME280;65825;52.232;10.566;2022-12-29T06:01:16;99333.56;;;10.42;72.55
76853;BME280;65825;52.232;10.566;2022-12-29T06:03:42;99328.91;;;10.47;72.17
76853;BME280;65825;52.232;10.566;2022-12-29T06:06:07;99328.25;;;10.59;71.68
76853;BME280;65825;52.232;10.566;2022-12-29T06:08:33;99314.03;;;10.62;72.11
76853;BME280;65825;52.232;10.566;2022-12-29T06:10:58;99316.59;;;10.63;72.10
76853;BME280;65825;52.232;10.566;2022-12-29T06:13:23;99315.03;;;10.59;72.82
76853;BME280;65825;52.232;10.566;2022-12-29T06:15:49;99310.59;;;10.60;73.47
76853;BME280;65825;52.232;10.566;2022-12-29T06:18:15;99309.09;;;10.56;72.87
76853;BME280;65825;52.232;10.566;2022-12-29T06:20:40;99326.75;;;10.54;72.99
76853;BME280;65825;52.232;10.566;2022-12-29T06:23:05;99322.28;;;10.56;72.87
76853;BME280;65825;52.232;10.566;2022-12-29T06:25:31;99301.25;;;10.54;73.61
76853;BME280;65825;52.232;10.566;2022-12-29T06:27:57;99314.25;;;10.57;73.65
76853;BME280;65825;52.232;10.566;2022-12-29T06:30:23;99321.34;;;10.72;73.31
76853;BME280;65825;52.232;10.566;2022-12-29T06:32:48;99316.53;;;10.80;73.84
76853;BME280;65825;52.232;10.566;2022-12-29T06:35:13;99298.19;;;10.77;73.97
76853;BME280;65825;52.232;10.566;2022-12-29T06:37:38;99330.59;;;10.81;73.19
76853;BME280;65825;52.232;10.566;2022-12-29T06:40:04;99302.03;;;10.72;73.71
76853;BME280;65825;52.232;10.566;2022-12-29T06:42:30;99306.13;;;10.62;73.78
76853;BME280;65825;52.232;10.566;2022-12-29T06:44:55;99312.16;;;10.64;73.64
76853;BME280;65825;52.232;10.566;2022-12-29T06:47:23;99306.53;;;10.70;73.88
76853;BME280;65825;52.232;10.566;2022-12-29T06:49:48;99304.19;;;10.81;73.37
76853;BME280;65825;52.232;10.566;2022-12-29T06:52:14;99297.38;;;10.77;72.97
76853;BME280;65825;52.232;10.566;2022-12-29T06:54:40;99306.22;;;10.91;72.52
76853;BME280;65825;52.232;10.566;2022-12-29T06:57:05;99290.84;;;10.99;72.03
76853;BME280;65825;52.232;10.566;2022-12-29T06:59:30;99316.22;;;11.02;72.84
76853;BME280;65825;52.232;10.566;2022-12-29T07:01:56;99322.00;;;11.08;71.78
76853;BME280;65825;52.232;10.566;2022-12-29T07:04:21;99321.91;;;11.10;72.57
76853;BME280;65825;52.232;10.566;2022-12-29T07:06:46;99340.25;;;11.13;71.79
76853;BME280;65825;52.232;10.566;2022-12-29T07:09:12;99294.34;;;11.15;71.41
76853;BME280;65825;52.232;10.566;2022-12-29T07:11:37;99281.88;;;11.17;71.66
76853;BME280;65825;52.232;10.566;2022-12-29T07:14:03;99283.09;;;11.12;71.43
76853;BME280;65825;52.232;10.566;2022-12-29T07:16:29;99288.00;;;11.02;72.60
76853;BME280;65825;52.232;10.566;2022-12-29T07:18:56;99267.50;;;10.92;72.77
76853;BME280;65825;52.232;10.566;2022-12-29T07:21:21;99271.91;;;10.91;72.37
76853;BME280;65825;52.232;10.566;2022-12-29T07:23:46;99321.31;;;11.05;71.28
76853;BME280;65825;52.232;10.566;2022-12-29T07:26:14;99308.38;;;11.16;71.41
76853;BME280;65825;52.232;10.566;2022-12-29T07:28:39;99295.75;;;11.21;71.48
76853;BME280;65825;52.232;10.566;2022-12-29T07:31:12;99314.09;;;11.24;71.70
76853;BME280;65825;52.232;10.566;2022-12-29T07:33:38;99308.72;;;11.25;70.19
76853;BME280;65825;52.232;10.566;2022-12-29T07:36:04;99282.81;;;11.16;71.27
76853;BME280;65825;52.232;10.566;2022-12-29T07:38:30;99298.94;;;11.12;71.12
76853;BME280;65825;52.232;10.566;2022-12-29T07:40:58;99289.72;;;11.03;71.61
76853;BME280;65825;52.232;10.566;2022-12-29T07:43:24;99269.53;;;11.02;71.71
76853;BME280;65825;52.232;10.566;2022-12-29T07:45:49;99296.78;;;11.03;71.71
76853;BME280;65825;52.232;10.566;2022-12-29T07:48:14;99304.22;;;11.12;70.89
76853;BME280;65825;52.232;10.566;2022-12-29T07:50:39;99297.81;;;11.31;70.66
76853;BME280;65825;52.232;10.566;2022-12-29T07:53:05;99299.16;;;11.38;70.10
76853;BME280;65825;52.232;10.566;2022-12-29T07:55:30;99300.69;;;11.42;69.14
76853;BME280;65825;52.232;10.566;2022-12-29T07:57:56;99322.34;;;11.64;69.61
76853;BME280;65825;52.232;10.566;2022-12-29T08:00:21;99303.66;;;11.52;69.76
76853;BME280;65825;52.232;10.566;2022-12-29T08:02:47;99308.69;;;11.41;69.92
76853;BME280;65825;52.232;10.566;2022-12-29T08:05:13;99351.31;;;11.35;70.22
76853;BME280;65825;52.232;10.566;2022-12-29T08:07:38;99320.22;;;11.40;69.76
76853;BME280;65825;52.232;10.566;2022-12-29T08:10:05;99325.84;;;11.34;70.02
76853;BME280;65825;52.232;10.566;2022-12-29T08:12:30;99329.44;;;11.64;69.49
76853;BME280;65825;52.232;10.566;2022-12-29T08:14:56;99357.28;;;11.85;68.18
76853;BME280;65825;52.232;10.566;2022-12-29T08:17:21;99339.75;;;11.98;67.83
76853;BME280;65825;52.232;10.566;2022-12-29T08:19:46;99342.81;;;12.06;68.07
76853;BME280;65825;52.232;10.566;2022-12-29T08:22:13;99349.81;;;11.91;68.03
76853;BME280;65825;52.232;10.566;2022-12-29T08:24:38;99348.75;;;11.80;68.69
76853;BME280;65825;52.232;10.566;2022-12-29T08:27:03;99356.69;;;11.64;69.96
76853;BME280;65825;52.232;10.566;2022-12-29T08:29:29;99356.69;;;11.64;69.28
76853;BME280;65825;52.232;10.566;2022-12-29T08:31:54;99360.97;;;11.67;69.93
76853;BME280;65825;52.232;10.566;2022-12-29T08:34:22;99363.25;;;11.73;69.03
76853;BME280;65825;52.232;10.566;2022-12-29T08:36:47;99361.19;;;11.78;69.56
76853;BME280;65825;52.232;10.566;2022-12-29T08:39:12;99363.44;;;11.70;69.94
76853;BME280;65825;52.232;10.566;2022-12-29T08:41:38;99367.94;;;11.68;69.96
76853;BME280;65825;52.232;10.566;2022-12-29T08:44:04;99380.72;;;11.75;70.07
76853;BME280;65825;52.232;10.566;2022-12-29T08:46:29;99365.72;;;11.76;69.17
76853;BME280;65825;52.232;10.566;2022-12-29T08:48:54;99353.84;;;11.83;69.34
76853;BME280;65825;52.232;10.566;2022-12-29T08:51:20;99365.59;;;11.93;68.54
76853;BME280;65825;52.232;10.566;2022-12-29T08:53:45;99371.31;;;12.01;68.55
76853;BME280;65825;52.232;10.566;2022-12-29T08:56:10;99359.38;;;11.94;69.00
76853;BME280;65825;52.232;10.566;2022-12-29T08:58:36;99352.47;;;11.91;68.59
76853;BME280;65825;52.232;10.566;2022-12-29T09:01:02;99363.63;;;11.96;68.24
76853;BME280;65825;52.232;10.566;2022-12-29T09:03:28;99343.84;;;12.17;68.40
76853;BME280;65825;52.232;10.566;2022-12-29T09:05:54;99344.75;;;12.32;68.29
76853;BME280;65825;52.232;10.566;2022-12-29T09:08:20;99343.00;;;12.60;68.54
76853;BME280;65825;52.232;10.566;2022-12-29T09:10:46;99358.78;;;12.76;68.60
76853;BME280;65825;52.232;10.566;2022-12-29T09:13:12;99364.28;;;12.87;67.29
76853;BME280;65825;52.232;10.566;2022-12-29T09:15:38;99376.19;;;12.66;68.23
76853;BME280;65825;52.232;10.566;2022-12-29T09:18:03;99362.34;;;12.33;68.86
76853;BME280;65825;52.232;10.566;2022-12-29T09:20:29;99365.38;;;12.11;70.01
76853;BME280;65825;52.232;10.566;2022-12-29T09:22:54;99355.91;;;11.93;70.78
76853;BME280;65825;52.232;10.566;2022-12-29T09:25:19;99350.25;;;11.84;71.77
76853;BME280;65825;52.232;10.566;2022-12-29T09:27:45;99361.97;;;11.80;72.46
76853;BME280;65825;52.232;10.566;2022-12-29T09:30:12;99357.97;;;11.73;72.61
76853;BME280;65825;52.232;10.566;2022-12-29T09:32:37;99363.00;;;11.77;71.25
76853;BME280;65825;52.232;10.566;2022-12-29T09:35:03;99375.09;;;11.81;71.68
76853;BME280;65825;52.232;10.566;2022-12-29T09:37:29;99381.59;;;11.76;71.96
76853;BME280;65825;52.232;10.566;2022-12-29T09:39:56;99381.75;;;11.57;73.60
76853;BME280;65825;52.232;10.566;2022-12-29T09:42:35;99411.75;;;11.41;73.62
76853;BME280;65825;52.232;10.566;2022-12-29T09:45:18;99402.06;;;11.41;72.86
76853;BME280;65825;52.232;10.566;2022-12-29T09:47:46;99417.72;;;11.44;72.26
76853;BME280;65825;52.232;10.566;2022-12-29T09:50:39;99409.44;;;11.35;72.47
76853;BME280;65825;52.232;10.566;2022-12-29T09:53:14;99416.00;;;11.43;72.04
76853;BME280;65825;52.232;10.566;2022-12-29T09:55:50;99416.88;;;11.44;72.96
76853;BME280;65825;52.232;10.566;2022-12-29T09:58:36;99402.13;;;11.55;71.55
76853;BME280;65825;52.232;10.566;2022-12-29T10:01:05;99400.69;;;11.65;71.79
76853;BME280;65825;52.232;10.566;2022-12-29T10:03:45;99408.47;;;11.68;70.94
76853;BME280;65825;52.232;10.566;2022-12-29T10:06:17;99403.34;;;11.65;70.91
76853;BME280;65825;52.232;10.566;2022-12-29T10:08:52;99408.75;;;11.64;71.13
76853;BME280;65825;52.232;10.566;2022-12-29T10:11:38;99404.13;;;11.67;70.73
76853;BME280;65825;52.232;10.566;2022-12-29T10:14:40;99418.69;;;11.74;69.98
76853;BME280;65825;52.232;10.566;2022-12-29T10:17:40;99410.75;;;11.74;69.95
76853;BME280;65825;52.232;10.566;2022-12-29T10:20:12;99419.53;;;11.90;69.37
76853;BME280;65825;52.232;10.566;2022-12-29T10:25:25;99412.63;;;12.03;67.74
76853;BME280;65825;52.232;10.566;2022-12-29T10:27:53;99418.84;;;11.87;67.54
76853;BME280;65825;52.232;10.566;2022-12-29T10:30:21;99405.94;;;12.12;66.81
76853;BME280;65825;52.232;10.566;2022-12-29T10:32:54;99411.78;;;12.90;64.55
76853;BME280;65825;52.232;10.566;2022-12-29T10:35:26;99410.88;;;15.76;53.92
76853;BME280;65825;52.232;10.566;2022-12-29T10:38:09;99408.34;;;17.79;47.70
76853;BME280;65825;52.232;10.566;2022-12-29T10:41:05;99417.31;;;24.39;33.49
76853;BME280;65825;52.232;10.566;2022-12-29T10:43:45;99408.22;;;24.48;32.03
76853;BME280;65825;52.232;10.566;2022-12-29T10:46:20;99434.44;;;18.92;42.56
76853;BME280;65825;52.232;10.566;2022-12-29T10:48:46;99417.31;;;18.42;44.81
76853;BME280;65825;52.232;10.566;2022-12-29T10:51:24;99401.22;;;18.22;44.98
76853;BME280;65825;52.232;10.566;2022-12-29T10:54:15;99412.56;;;14.79;55.17
76853;BME280;65825;52.232;10.566;2022-12-29T10:56:57;99410.13;;;13.71;58.62
76853;BME280;65825;52.232;10.566;2022-12-29T10:59:29;99413.81;;;15.84;54.89
76853;BME280;65825;52.232;10.566;2022-12-29T11:02:00;99407.59;;;21.26;38.89
76853;BME280;65825;52.232;10.566;2022-12-29T11:07:12;99411.41;;;26.33;29.01
76853;BME280;65825;52.232;10.566;2022-12-29T11:09:39;99404.38;;;28.86;24.74
76853;BME280;65825;52.232;10.566;2022-12-29T11:12:25;99394.50;;;22.39;33.86
76853;BME280;65825;52.232;10.566;2022-12-29T11:17:29;99384.00;;;22.28;35.71
76853;BME280;65825;52.232;10.566;2022-12-29T11:19:54;99394.13;;;26.34;27.82
76853;BME280;65825;52.232;10.566;2022-12-29T11:22:24;99407.97;;;27.72;25.22
76853;BME280;65825;52.232;10.566;2022-12-29T11:24:52;99391.41;;;29.09;22.91
76853;BME280;65825;52.232;10.566;2022-12-29T11:27:25;99398.69;;;28.60;23.48
76853;BME280;65825;52.232;10.566;2022-12-29T11:29:52;99384.38;;;21.71;34.86
76853;BME280;65825;52.232;10.566;2022-12-29T11:32:24;99390.34;;;19.37;39.99
76853;BME280;65825;52.232;10.566;2022-12-29T11:34:50;99400.22;;;16.81;46.35
76853;BME280;65825;52.232;10.566;2022-12-29T11:37:32;99400.41;;;15.50;50.17
76853;BME280;65825;52.232;10.566;2022-12-29T11:40:06;99402.47;;;14.96;51.68
76853;BME280;65825;52.232;10.566;2022-12-29T11:42:39;99397.91;;;13.95;54.08
76853;BME280;65825;52.232;10.566;2022-12-29T11:45:13;99404.41;;;13.23;56.64
76853;BME280;65825;52.232;10.566;2022-12-29T11:47:42;99416.03;;;12.92;57.63
76853;BME280;65825;52.232;10.566;2022-12-29T11:50:17;99408.34;;;12.74;58.81
76853;BME280;65825;52.232;10.566;2022-12-29T11:52:43;99403.06;;;12.74;59.73
76853;BME280;65825;52.232;10.566;2022-12-29T11:55:18;99421.72;;;12.43;61.94
76853;BME280;65825;52.232;10.566;2022-12-29T11:57:45;99424.69;;;12.07;63.99
76853;BME280;65825;52.232;10.566;2022-12-29T12:00:16;99424.38;;;11.98;64.65
76853;BME280;65825;52.232;10.566;2022-12-29T12:02:59;99434.78;;;12.01;64.65
76853;BME280;65825;52.232;10.566;2022-12-29T12:05:35;99440.59;;;11.76;65.57
76853;BME280;65825;52.232;10.566;2022-12-29T12:10:34;99456.25;;;11.48;65.96
76853;BME280;65825;52.232;10.566;2022-12-29T12:13:18;99449.53;;;11.58;66.98
76853;BME280;65825;52.232;10.566;2022-12-29T12:15:57;99463.06;;;11.37;66.96
76853;BME280;65825;52.232;10.566;2022-12-29T12:18:37;99483.44;;;11.35;66.66
76853;BME280;65825;52.232;10.566;2022-12-29T12:21:13;99470.97;;;11.21;66.78
76853;BME280;65825;52.232;10.566;2022-12-29T12:26:38;99467.84;;;11.30;66.25
76853;BME280;65825;52.232;10.566;2022-12-29T12:29:11;99453.75;;;11.62;64.98
76853;BME280;65825;52.232;10.566;2022-12-29T12:31:56;99459.31;;;20.33;37.94
76853;BME280;65825;52.232;10.566;2022-12-29T12:34:39;99453.13;;;25.13;29.90
76853;BME280;65825;52.232;10.566;2022-12-29T12:37:30;99446.34;;;24.53;28.79
76853;BME280;65825;52.232;10.566;2022-12-29T12:53:53;99446.28;;;13.72;51.87
76853;BME280;65825;52.232;10.566;2022-12-29T12:56:41;99443.44;;;12.77;56.19
76853;BME280;65825;52.232;10.566;2022-12-29T12:59:31;99439.09;;;12.17;58.46
76853;BME280;65825;52.232;10.566;2022-12-29T13:10:41;99462.72;;;11.60;62.39
76853;BME280;65825;52.232;10.566;2022-12-29T13:18:33;99458.81;;;11.50;62.79
76853;BME280;65825;52.232;10.566;2022-12-29T13:23:42;99468.03;;;11.43;63.21
76853;BME280;65825;52.232;10.566;2022-12-29T13:26:19;99468.19;;;11.40;62.13
76853;BME280;65825;52.232;10.566;2022-12-29T13:36:31;99480.91;;;11.16;63.53
76853;BME280;65825;52.232;10.566;2022-12-29T13:39:04;99485.41;;;11.14;63.31
76853;BME280;65825;52.232;10.566;2022-12-29T13:41:35;99487.66;;;11.22;63.51
76853;BME280;65825;52.232;10.566;2022-12-29T13:44:05;99495.56;;;11.22;63.78
76853;BME280;65825;52.232;10.566;2022-12-29T13:46:39;99494.81;;;11.20;63.42
76853;BME280;65825;52.232;10.566;2022-12-29T13:49:12;99491.84;;;11.26;63.90
76853;BME280;65825;52.232;10.566;2022-12-29T13:51:44;99493.25;;;11.16;63.94
76853;BME280;65825;52.232;10.566;2022-12-29T13:54:17;99490.00;;;11.11;64.19
76853;BME280;65825;52.232;10.566;2022-12-29T13:57:14;99494.53;;;11.09;65.44
76853;BME280;65825;52.232;10.566;2022-12-29T14:02:32;99510.53;;;11.06;63.78
76853;BME280;65825;52.232;10.566;2022-12-29T14:05:26;99510.31;;;11.10;63.41
76853;BME280;65825;52.232;10.566;2022-12-29T14:07:59;99513.00;;;11.09;62.90
76853;BME280;65825;52.232;10.566;2022-12-29T14:10:44;99516.13;;;11.00;63.54
76853;BME280;65825;52.232;10.566;2022-12-29T14:15:38;99526.66;;;11.17;60.47
76853;BME280;65825;52.232;10.566;2022-12-29T14:18:20;99531.94;;;11.17;60.27
76853;BME280;65825;52.232;10.566;2022-12-29T14:20:58;99538.97;;;11.18;60.26
76853;BME280;65825;52.232;10.566;2022-12-29T14:23:29;99543.44;;;11.16;59.51
76853;BME280;65825;52.232;10.566;2022-12-29T14:28:34;99549.41;;;11.19;59.69
76853;BME280;65825;52.232;10.566;2022-12-29T14:31:04;99552.94;;;11.20;59.82
76853;BME280;65825;52.232;10.566;2022-12-29T14:33:32;99571.41;;;11.20;59.85